createdAt,value
2023-03-17T00:01:16.429Z,70.90
2023-03-17T00:06:33.030Z,71.90
2023-03-17T00:11:36.088Z,71.50
2023-03-17T00:16:43.941Z,71.50
2023-03-17T00:21:48.263Z,71.50
2023-03-17T00:26:51.221Z,71.30
2023-03-17T00:31:55.308Z,71.80
2023-03-17T00:36:58.331Z,72.50
2023-03-17T00:42:01.624Z,72.50
2023-03-17T00:47:05.062Z,72.60
2023-03-17T00:52:09.307Z,73.00
2023-03-17T00:57:12.726Z,73.30
2023-03-17T01:02:15.777Z,73.10
2023-03-17T01:07:18.572Z,73.40
2023-03-17T01:12:21.689Z,73.60
2023-03-17T01:17:24.657Z,73.50
2023-03-17T01:22:27.938Z,74.60
2023-03-17T01:27:36.697Z,73.80
2023-03-17T01:32:39.687Z,75.10
2023-03-17T01:37:42.732Z,75.10
2023-03-17T01:42:54.445Z,74.50
2023-03-17T01:47:57.437Z,75.00
2023-03-17T01:53:00.536Z,75.80
2023-03-17T01:58:03.677Z,74.60
2023-03-17T02:03:06.627Z,75.40
2023-03-17T02:08:16.603Z,74.90
2023-03-17T02:13:19.861Z,75.40
2023-03-17T02:18:24.133Z,75.00
2023-03-17T02:23:27.228Z,75.80
2023-03-17T02:28:31.694Z,75.60
2023-03-17T02:33:34.728Z,75.70
2023-03-17T02:38:37.983Z,76.50
2023-03-17T02:43:41.674Z,77.50
2023-03-17T02:48:47.028Z,77.00
2023-03-17T02:53:50.243Z,77.50
2023-03-17T02:58:53.473Z,77.50
2023-03-17T03:03:57.679Z,78.40
2023-03-17T03:09:00.538Z,77.90
2023-03-17T03:14:03.610Z,78.10
2023-03-17T03:19:08.364Z,78.30
2023-03-17T03:24:11.722Z,78.30
2023-03-17T03:29:14.765Z,78.60
2023-03-17T03:34:17.756Z,79.10
2023-03-17T03:39:20.742Z,79.50
2023-03-17T03:44:24.607Z,79.80
2023-03-17T03:49:27.767Z,80.10
2023-03-17T03:54:30.927Z,80.50
2023-03-17T03:59:34.058Z,80.30
2023-03-17T04:04:38.708Z,81.20
2023-03-17T04:09:42.566Z,81.50
2023-03-17T04:14:45.762Z,81.30
2023-03-17T04:19:49.308Z,81.60
2023-03-17T04:24:52.388Z,81.40
2023-03-17T04:29:55.389Z,81.40
2023-03-17T04:34:58.584Z,81.90
2023-03-17T04:40:01.638Z,81.70
2023-03-17T04:45:06.865Z,81.80
2023-03-17T04:50:11.808Z,82.10
2023-03-17T04:55:15.011Z,82.70
2023-03-17T05:00:18.705Z,82.50
2023-03-17T05:05:21.732Z,82.60
2023-03-17T05:10:25.053Z,83.10
2023-03-17T05:15:28.165Z,83.10
2023-03-17T05:20:32.078Z,84.20
2023-03-17T05:25:35.758Z,84.50
2023-03-17T05:30:39.140Z,85.20
2023-03-17T05:35:43.014Z,87.70
2023-03-17T05:40:46.139Z,87.20
2023-03-17T05:45:50.737Z,86.90
2023-03-17T05:50:54.151Z,86.80
2023-03-17T05:55:56.994Z,86.60
2023-03-17T06:01:00.009Z,86.60
2023-03-17T06:06:03.027Z,87.30
2023-03-17T06:11:06.811Z,86.60
2023-03-17T06:16:09.937Z,86.30
2023-03-17T06:21:13.852Z,87.20
2023-03-17T06:26:16.779Z,86.50
2023-03-17T06:31:19.926Z,86.20
2023-03-17T06:36:23.428Z,85.80
2023-03-17T06:41:27.672Z,85.50
2023-03-17T06:46:30.553Z,85.10
2023-03-17T06:51:34.363Z,84.60
2023-03-17T06:56:37.350Z,84.30
2023-03-17T07:01:40.878Z,83.50
2023-03-17T07:06:44.994Z,82.60
2023-03-17T07:11:47.990Z,80.70
2023-03-17T07:16:51.041Z,80.50
2023-03-17T07:21:57.706Z,79.80
2023-03-17T07:27:00.777Z,78.90
2023-03-17T07:32:06.504Z,77.70
2023-03-17T07:37:10.442Z,76.10
2023-03-17T07:42:17.186Z,75.20
2023-03-17T07:47:20.626Z,73.90
2023-03-17T07:52:23.700Z,72.90
2023-03-17T07:57:27.415Z,72.10
2023-03-17T08:02:31.881Z,71.20
2023-03-17T08:07:37.565Z,69.70
2023-03-17T08:12:42.666Z,69.10
2023-03-17T08:17:45.734Z,69.40
2023-03-17T08:22:48.745Z,68.50
2023-03-17T08:27:52.151Z,66.70
2023-03-17T08:32:55.049Z,64.90
2023-03-17T08:37:58.117Z,61.80
2023-03-17T08:43:01.372Z,61.30
2023-03-17T08:48:04.486Z,59.80
2023-03-17T08:53:08.555Z,58.90
2023-03-17T08:58:11.513Z,56.60
2023-03-17T09:03:15.483Z,55.40
2023-03-17T09:08:18.497Z,52.90
2023-03-17T09:13:22.820Z,51.80
2023-03-17T09:18:26.129Z,50.70
2023-03-17T09:23:29.287Z,49.70
2023-03-17T09:28:32.903Z,49.70
2023-03-17T09:33:35.917Z,46.90
2023-03-17T09:38:39.259Z,45.70
2023-03-17T09:44:00.606Z,45.70
2023-03-17T09:49:08.355Z,45.70
2023-03-17T09:54:34.190Z,45.90
2023-03-17T09:59:48.152Z,45.30
2023-03-17T10:04:52.011Z,43.90
2023-03-17T10:10:24.362Z,43.40
2023-03-17T10:16:01.597Z,42.10
2023-03-17T10:21:07.981Z,40.00
2023-03-17T10:26:46.661Z,41.00
2023-03-17T10:31:56.374Z,40.10
2023-03-17T10:37:15.585Z,40.80
2023-03-17T10:42:30.348Z,40.10
2023-03-17T10:47:44.733Z,39.90
2023-03-17T10:52:53.661Z,39.30
2023-03-17T10:58:15.572Z,38.50
2023-03-17T11:03:39.985Z,39.20
2023-03-17T11:08:49.505Z,37.50
2023-03-17T11:14:06.171Z,37.60
2023-03-17T11:19:17.009Z,37.10
2023-03-17T11:24:51.497Z,36.80
2023-03-17T11:30:19.129Z,36.50
2023-03-17T11:35:44.237Z,36.90
2023-03-17T11:41:33.859Z,36.30
2023-03-17T11:46:46.691Z,34.40
2023-03-17T11:52:16.437Z,35.50
2023-03-17T11:57:52.941Z,34.00
2023-03-17T12:03:09.164Z,34.50
2023-03-17T12:08:35.727Z,34.40
2023-03-17T12:13:57.061Z,33.00
2023-03-17T12:19:42.584Z,33.30
2023-03-17T12:25:16.692Z,33.50
2023-03-17T12:30:54.508Z,33.50
2023-03-17T12:35:59.022Z,33.50
2023-03-17T12:41:45.541Z,33.50
2023-03-17T12:47:23.327Z,33.60
2023-03-17T12:52:37.610Z,33.80
2023-03-17T12:58:08.109Z,34.10
2023-03-17T13:03:23.948Z,34.40
2023-03-17T13:08:45.283Z,34.60
2023-03-17T13:14:08.743Z,34.70
2023-03-17T13:19:33.612Z,35.00
2023-03-17T13:24:52.322Z,35.40
2023-03-17T13:29:55.337Z,35.20
2023-03-17T13:35:01.753Z,35.60
2023-03-17T13:40:13.667Z,36.00
2023-03-17T13:45:43.185Z,36.40
2023-03-17T13:50:47.944Z,36.50
2023-03-17T13:56:31.721Z,36.20
2023-03-17T14:01:51.578Z,36.10
2023-03-17T14:07:00.733Z,36.10
2023-03-17T14:12:24.878Z,36.00
2023-03-17T14:17:47.110Z,35.90
2023-03-17T14:23:02.331Z,36.10
2023-03-17T14:28:12.418Z,36.30
2023-03-17T14:33:37.972Z,36.60
2023-03-17T14:38:53.182Z,36.20
2023-03-17T14:44:01.600Z,36.20
2023-03-17T14:49:20.448Z,35.70
2023-03-17T14:54:35.254Z,36.00
2023-03-17T14:59:41.431Z,36.20
2023-03-17T15:05:12.920Z,36.70
2023-03-17T15:10:22.938Z,36.50
2023-03-17T15:15:39.193Z,36.20
2023-03-17T15:20:44.363Z,36.00
2023-03-17T15:25:56.390Z,35.70
2023-03-17T15:31:13.090Z,35.70
2023-03-17T15:36:31.451Z,36.30
2023-03-17T15:41:34.895Z,36.80
2023-03-17T15:46:37.678Z,37.50
2023-03-17T15:51:40.645Z,37.80
2023-03-17T15:56:43.705Z,38.10
2023-03-17T16:01:46.951Z,38.60
2023-03-17T16:06:50.034Z,39.00
2023-03-17T16:11:52.988Z,39.40
2023-03-17T16:16:56.183Z,40.00
2023-03-17T16:21:59.343Z,40.30
2023-03-17T16:27:02.638Z,40.90
2023-03-17T16:32:09.147Z,41.30
2023-03-17T16:37:21.164Z,41.70
2023-03-17T16:42:24.619Z,42.10
2023-03-17T16:47:27.772Z,42.80
2023-03-17T16:52:31.354Z,43.60
2023-03-17T16:57:34.472Z,43.90
2023-03-17T17:02:37.492Z,44.60
2023-03-17T17:07:40.772Z,45.60
2023-03-17T17:12:44.192Z,46.50
2023-03-17T17:18:01.365Z,47.10
2023-03-17T17:23:05.006Z,47.90
2023-03-17T17:28:08.805Z,48.40
2023-03-17T17:33:12.711Z,48.70
2023-03-17T17:38:29.142Z,49.60
2023-03-17T17:43:32.515Z,50.20
2023-03-17T17:48:35.710Z,50.30
2023-03-17T17:53:39.253Z,51.00
2023-03-17T17:58:43.232Z,51.30
2023-03-17T18:03:46.464Z,51.40
2023-03-17T18:08:50.384Z,51.80
2023-03-17T18:13:53.440Z,52.50
2023-03-17T18:18:57.859Z,52.40
2023-03-17T18:24:01.508Z,52.90
2023-03-17T18:29:05.997Z,52.90
2023-03-17T18:34:19.511Z,53.40
2023-03-17T18:39:23.004Z,54.10
2023-03-17T18:44:25.849Z,54.20
2023-03-17T18:49:29.122Z,54.80
2023-03-17T18:54:32.342Z,55.40
2023-03-17T18:59:35.636Z,55.90
2023-03-17T19:04:45.877Z,56.20
2023-03-17T19:09:49.578Z,56.90
2023-03-17T19:14:52.878Z,57.70
2023-03-17T19:19:56.162Z,57.40
2023-03-17T19:24:59.452Z,57.70
2023-03-17T19:30:02.875Z,58.00
2023-03-17T19:35:07.980Z,58.40
2023-03-17T19:40:13.400Z,58.80
2023-03-17T19:45:16.601Z,59.40
2023-03-17T19:50:20.662Z,59.90
2023-03-17T19:55:25.396Z,60.40
2023-03-17T20:00:28.325Z,60.60
2023-03-17T20:05:31.347Z,61.10
2023-03-17T20:10:34.601Z,61.50
2023-03-17T20:15:38.323Z,61.90
2023-03-17T20:20:54.086Z,61.90
2023-03-17T20:25:57.469Z,62.70
2023-03-17T20:31:04.758Z,63.20
2023-03-17T20:36:08.536Z,63.40
2023-03-17T20:41:18.603Z,64.40
2023-03-17T20:46:24.819Z,63.90
2023-03-17T20:51:28.288Z,63.60
2023-03-17T20:56:34.297Z,64.50
2023-03-17T21:01:38.904Z,64.60
2023-03-17T21:06:42.901Z,65.30
2023-03-17T21:11:46.718Z,65.60
2023-03-17T21:16:50.423Z,65.90
2023-03-17T21:21:53.964Z,66.40
2023-03-17T21:26:57.560Z,66.10
2023-03-17T21:32:02.055Z,65.70
2023-03-17T21:37:05.893Z,66.30
2023-03-17T21:42:09.749Z,66.50
2023-03-17T21:47:12.785Z,67.10
2023-03-17T21:52:16.293Z,67.90
2023-03-17T21:57:19.450Z,68.60
2023-03-17T22:02:23.833Z,69.00
2023-03-17T22:07:26.856Z,68.60
2023-03-17T22:12:29.649Z,69.00
2023-03-17T22:17:32.725Z,69.20
2023-03-17T22:22:36.045Z,69.90
2023-03-17T22:27:39.015Z,70.30
2023-03-17T22:32:42.778Z,70.10
2023-03-17T22:37:45.962Z,70.10
2023-03-17T22:42:48.931Z,70.30
2023-03-17T22:47:52.443Z,70.50
2023-03-17T22:52:55.514Z,70.50
2023-03-17T22:57:58.432Z,71.20
2023-03-17T23:03:01.582Z,71.40
2023-03-17T23:08:04.950Z,71.70
2023-03-17T23:13:08.600Z,71.50
2023-03-17T23:18:12.176Z,72.10
2023-03-17T23:23:15.410Z,72.60
2023-03-17T23:28:20.053Z,72.80
2023-03-17T23:33:24.118Z,73.20
2023-03-17T23:38:27.961Z,73.40
2023-03-17T23:43:31.233Z,73.40
2023-03-17T23:48:34.182Z,73.80
2023-03-17T23:53:39.705Z,74.30
2023-03-17T23:58:43.681Z,74.90
